sensor_id;sensor_type;location;lat;lon;timestamp;P1;durP1;ratioP1;P2;durP2;ratioP2
24743;SDS011;12844;52.110;5.548;2023-11-21T00:00:37;4.40;;;2.97;;
24743;SDS011;12844;52.110;5.548;2023-11-21T00:03:03;5.95;;;3.10;;
24743;SDS011;12844;52.110;5.548;2023-11-21T00:05:29;6.40;;;3.05;;
24743;SDS011;12844;52.110;5.548;2023-11-21T00:18:16;4.18;;;2.90;;
24743;SDS011;12844;52.110;5.548;2023-11-21T00:20:41;4.15;;;3.10;;
24743;SDS011;12844;52.110;5.548;2023-11-21T00:23:07;3.28;;;2.80;;
24743;SDS011;12844;52.110;5.548;2023-11-21T00:25:34;4.57;;;2.75;;
24743;SDS011;12844;52.110;5.548;2023-11-21T00:28:00;4.25;;;2.90;;
24743;SDS011;12844;52.110;5.548;2023-11-21T00:30:26;5.68;;;3.20;;
24743;SDS011;12844;52.110;5.548;2023-11-21T00:32:52;3.78;;;2.78;;
24743;SDS011;12844;52.110;5.548;2023-11-21T00:35:18;7.78;;;3.05;;
24743;SDS011;12844;52.110;5.548;2023-11-21T00:40:19;4.47;;;3.30;;
24743;SDS011;12844;52.110;5.548;2023-11-21T00:42:46;4.43;;;3.22;;
24743;SDS011;12844;52.110;5.548;2023-11-21T00:45:12;4.45;;;3.03;;
24743;SDS011;12844;52.110;5.548;2023-11-21T00:47:37;4.78;;;3.00;;
24743;SDS011;12844;52.110;5.548;2023-11-21T00:50:03;3.28;;;2.78;;
24743;SDS011;12844;52.110;5.548;2023-11-21T00:52:31;4.88;;;3.20;;
24743;SDS011;12844;52.110;5.548;2023-11-21T00:54:57;4.10;;;3.30;;
24743;SDS011;12844;52.110;5.548;2023-11-21T00:57:24;6.15;;;2.95;;
24743;SDS011;12844;52.110;5.548;2023-11-21T00:59:49;4.30;;;2.97;;
24743;SDS011;12844;52.110;5.548;2023-11-21T01:02:15;5.13;;;3.42;;
24743;SDS011;12844;52.110;5.548;2023-11-21T01:04:40;3.33;;;2.80;;
24743;SDS011;12844;52.110;5.548;2023-11-21T01:07:06;3.80;;;3.17;;
24743;SDS011;12844;52.110;5.548;2023-11-21T01:09:32;4.60;;;3.17;;
24743;SDS011;12844;52.110;5.548;2023-11-21T01:11:57;3.90;;;3.00;;
24743;SDS011;12844;52.110;5.548;2023-11-21T01:14:24;4.22;;;3.00;;
24743;SDS011;12844;52.110;5.548;2023-11-21T01:16:51;4.18;;;3.00;;
24743;SDS011;12844;52.110;5.548;2023-11-21T01:19:17;2.92;;;2.58;;
24743;SDS011;12844;52.110;5.548;2023-11-21T01:21:43;4.25;;;2.95;;
24743;SDS011;12844;52.110;5.548;2023-11-21T01:24:08;4.20;;;3.22;;
24743;SDS011;12844;52.110;5.548;2023-11-21T01:26:34;5.50;;;3.53;;
24743;SDS011;12844;52.110;5.548;2023-11-21T01:28:59;3.75;;;3.03;;
24743;SDS011;12844;52.110;5.548;2023-11-21T01:31:25;5.05;;;3.03;;
24743;SDS011;12844;52.110;5.548;2023-11-21T01:33:54;3.78;;;2.92;;
24743;SDS011;12844;52.110;5.548;2023-11-21T01:36:20;3.80;;;3.25;;
24743;SDS011;12844;52.110;5.548;2023-11-21T01:38:46;4.45;;;3.25;;
24743;SDS011;12844;52.110;5.548;2023-11-21T01:41:13;3.60;;;3.20;;
24743;SDS011;12844;52.110;5.548;2023-11-21T01:43:39;3.50;;;2.95;;
24743;SDS011;12844;52.110;5.548;2023-11-21T01:46:05;3.58;;;3.20;;
24743;SDS011;12844;52.110;5.548;2023-11-21T01:48:32;4.88;;;3.20;;
24743;SDS011;12844;52.110;5.548;2023-11-21T01:50:59;3.92;;;3.13;;
24743;SDS011;12844;52.110;5.548;2023-11-21T01:53:25;4.25;;;3.10;;
24743;SDS011;12844;52.110;5.548;2023-11-21T01:55:52;4.18;;;3.17;;
24743;SDS011;12844;52.110;5.548;2023-11-21T01:58:20;4.00;;;2.92;;
24743;SDS011;12844;52.110;5.548;2023-11-21T02:00:46;3.83;;;3.28;;
24743;SDS011;12844;52.110;5.548;2023-11-21T02:03:15;3.53;;;2.92;;
24743;SDS011;12844;52.110;5.548;2023-11-21T02:05:41;4.47;;;3.10;;
24743;SDS011;12844;52.110;5.548;2023-11-21T02:08:07;4.10;;;3.15;;
24743;SDS011;12844;52.110;5.548;2023-11-21T02:10:34;4.00;;;3.22;;
24743;SDS011;12844;52.110;5.548;2023-11-21T02:13:02;4.57;;;3.10;;
24743;SDS011;12844;52.110;5.548;2023-11-21T02:15:27;3.95;;;3.00;;
24743;SDS011;12844;52.110;5.548;2023-11-21T02:17:54;4.10;;;3.10;;
24743;SDS011;12844;52.110;5.548;2023-11-21T02:20:20;3.92;;;2.90;;
24743;SDS011;12844;52.110;5.548;2023-11-21T02:22:49;4.20;;;2.83;;
24743;SDS011;12844;52.110;5.548;2023-11-21T02:25:22;3.50;;;2.70;;
24743;SDS011;12844;52.110;5.548;2023-11-21T02:27:54;3.90;;;3.10;;
24743;SDS011;12844;52.110;5.548;2023-11-21T02:30:23;3.65;;;2.60;;
24743;SDS011;12844;52.110;5.548;2023-11-21T02:35:19;3.97;;;3.08;;
24743;SDS011;12844;52.110;5.548;2023-11-21T02:37:46;4.07;;;3.08;;
24743;SDS011;12844;52.110;5.548;2023-11-21T02:40:12;3.63;;;2.97;;
24743;SDS011;12844;52.110;5.548;2023-11-21T02:42:41;3.97;;;3.40;;
24743;SDS011;12844;52.110;5.548;2023-11-21T02:45:07;3.95;;;2.75;;
24743;SDS011;12844;52.110;5.548;2023-11-21T02:47:33;3.53;;;3.15;;
24743;SDS011;12844;52.110;5.548;2023-11-21T02:49:59;3.28;;;2.75;;
24743;SDS011;12844;52.110;5.548;2023-11-21T02:52:24;3.75;;;3.17;;
24743;SDS011;12844;52.110;5.548;2023-11-21T02:54:50;3.80;;;3.00;;
24743;SDS011;12844;52.110;5.548;2023-11-21T02:57:16;5.20;;;3.15;;
24743;SDS011;12844;52.110;5.548;2023-11-21T02:59:42;3.92;;;3.08;;
24743;SDS011;12844;52.110;5.548;2023-11-21T03:02:07;3.50;;;3.00;;
24743;SDS011;12844;52.110;5.548;2023-11-21T03:04:33;3.30;;;2.92;;
24743;SDS011;12844;52.110;5.548;2023-11-21T03:07:00;4.15;;;3.00;;
24743;SDS011;12844;52.110;5.548;2023-11-21T03:09:25;4.40;;;3.40;;
24743;SDS011;12844;52.110;5.548;2023-11-21T03:11:51;4.45;;;3.20;;
24743;SDS011;12844;52.110;5.548;2023-11-21T03:14:18;3.88;;;3.13;;
24743;SDS011;12844;52.110;5.548;2023-11-21T03:16:44;4.00;;;3.20;;
24743;SDS011;12844;52.110;5.548;2023-11-21T03:19:10;4.47;;;3.00;;
24743;SDS011;12844;52.110;5.548;2023-11-21T03:21:36;3.72;;;3.15;;
24743;SDS011;12844;52.110;5.548;2023-11-21T03:24:01;4.05;;;2.83;;
24743;SDS011;12844;52.110;5.548;2023-11-21T03:26:27;4.03;;;3.40;;
24743;SDS011;12844;52.110;5.548;2023-11-21T03:28:54;3.63;;;3.13;;
24743;SDS011;12844;52.110;5.548;2023-11-21T03:31:20;3.15;;;2.65;;
24743;SDS011;12844;52.110;5.548;2023-11-21T03:33:46;3.45;;;2.92;;
24743;SDS011;12844;52.110;5.548;2023-11-21T03:36:12;3.80;;;3.00;;
24743;SDS011;12844;52.110;5.548;2023-11-21T03:38:39;3.70;;;3.10;;
24743;SDS011;12844;52.110;5.548;2023-11-21T03:41:06;3.35;;;2.88;;
24743;SDS011;12844;52.110;5.548;2023-11-21T03:43:31;3.20;;;2.90;;
24743;SDS011;12844;52.110;5.548;2023-11-21T03:45:57;3.45;;;2.88;;
24743;SDS011;12844;52.110;5.548;2023-11-21T03:48:22;3.13;;;2.60;;
24743;SDS011;12844;52.110;5.548;2023-11-21T03:50:48;3.90;;;2.92;;
24743;SDS011;12844;52.110;5.548;2023-11-21T03:53:13;3.85;;;2.70;;
24743;SDS011;12844;52.110;5.548;2023-11-21T03:55:39;3.30;;;2.75;;
24743;SDS011;12844;52.110;5.548;2023-11-21T03:58:05;3.72;;;3.00;;
24743;SDS011;12844;52.110;5.548;2023-11-21T04:00:30;3.95;;;2.95;;
24743;SDS011;12844;52.110;5.548;2023-11-21T04:02:56;3.67;;;2.97;;
24743;SDS011;12844;52.110;5.548;2023-11-21T04:05:22;3.67;;;2.88;;
24743;SDS011;12844;52.110;5.548;2023-11-21T04:07:51;3.05;;;2.70;;
24743;SDS011;12844;52.110;5.548;2023-11-21T04:10:17;3.28;;;2.80;;
24743;SDS011;12844;52.110;5.548;2023-11-21T04:12:43;3.13;;;2.70;;
24743;SDS011;12844;52.110;5.548;2023-11-21T04:15:10;3.45;;;2.60;;
24743;SDS011;12844;52.110;5.548;2023-11-21T04:17:37;3.53;;;2.78;;
24743;SDS011;12844;52.110;5.548;2023-11-21T04:20:03;3.30;;;2.80;;
24743;SDS011;12844;52.110;5.548;2023-11-21T04:22:33;3.53;;;2.85;;
24743;SDS011;12844;52.110;5.548;2023-11-21T04:24:59;3.45;;;2.80;;
24743;SDS011;12844;52.110;5.548;2023-11-21T04:27:24;3.72;;;2.70;;
24743;SDS011;12844;52.110;5.548;2023-11-21T04:29:50;3.60;;;2.72;;
24743;SDS011;12844;52.110;5.548;2023-11-21T04:32:15;4.10;;;2.85;;
24743;SDS011;12844;52.110;5.548;2023-11-21T04:34:41;3.40;;;2.85;;
24743;SDS011;12844;52.110;5.548;2023-11-21T04:37:06;3.22;;;2.67;;
24743;SDS011;12844;52.110;5.548;2023-11-21T04:39:32;4.25;;;2.80;;
24743;SDS011;12844;52.110;5.548;2023-11-21T04:41:57;3.40;;;2.67;;
24743;SDS011;12844;52.110;5.548;2023-11-21T04:44:23;4.28;;;2.97;;
24743;SDS011;12844;52.110;5.548;2023-11-21T04:46:48;3.30;;;2.58;;
24743;SDS011;12844;52.110;5.548;2023-11-21T04:49:14;3.33;;;2.50;;
24743;SDS011;12844;52.110;5.548;2023-11-21T04:51:40;3.25;;;2.90;;
24743;SDS011;12844;52.110;5.548;2023-11-21T04:54:05;3.67;;;2.58;;
24743;SDS011;12844;52.110;5.548;2023-11-21T04:56:31;4.22;;;2.80;;
24743;SDS011;12844;52.110;5.548;2023-11-21T04:58:56;3.40;;;2.67;;
24743;SDS011;12844;52.110;5.548;2023-11-21T05:01:22;3.08;;;2.67;;
24743;SDS011;12844;52.110;5.548;2023-11-21T05:03:47;3.13;;;2.58;;
24743;SDS011;12844;52.110;5.548;2023-11-21T05:06:14;3.08;;;2.78;;
24743;SDS011;12844;52.110;5.548;2023-11-21T05:08:40;3.72;;;2.85;;
24743;SDS011;12844;52.110;5.548;2023-11-21T05:11:05;3.72;;;2.80;;
24743;SDS011;12844;52.110;5.548;2023-11-21T05:13:33;2.88;;;2.42;;
24743;SDS011;12844;52.110;5.548;2023-11-21T05:15:59;4.03;;;2.97;;
24743;SDS011;12844;52.110;5.548;2023-11-21T05:18:25;3.25;;;2.53;;
24743;SDS011;12844;52.110;5.548;2023-11-21T05:20:54;2.75;;;2.38;;
24743;SDS011;12844;52.110;5.548;2023-11-21T05:23:20;2.85;;;2.65;;
24743;SDS011;12844;52.110;5.548;2023-11-21T05:25:46;4.30;;;2.75;;
24743;SDS011;12844;52.110;5.548;2023-11-21T05:28:12;3.58;;;2.85;;
24743;SDS011;12844;52.110;5.548;2023-11-21T05:30:39;3.20;;;2.65;;
24743;SDS011;12844;52.110;5.548;2023-11-21T05:33:05;3.22;;;2.70;;
24743;SDS011;12844;52.110;5.548;2023-11-21T05:35:30;3.40;;;2.67;;
24743;SDS011;12844;52.110;5.548;2023-11-21T05:37:56;3.95;;;2.33;;
24743;SDS011;12844;52.110;5.548;2023-11-21T05:40:22;4.45;;;2.75;;
24743;SDS011;12844;52.110;5.548;2023-11-21T05:42:47;3.78;;;2.72;;
24743;SDS011;12844;52.110;5.548;2023-11-21T05:45:13;3.47;;;2.65;;
24743;SDS011;12844;52.110;5.548;2023-11-21T05:47:41;3.50;;;2.75;;
24743;SDS011;12844;52.110;5.548;2023-11-21T05:50:08;3.10;;;2.72;;
24743;SDS011;12844;52.110;5.548;2023-11-21T05:52:37;3.65;;;2.75;;
24743;SDS011;12844;52.110;5.548;2023-11-21T05:55:04;2.83;;;2.45;;
24743;SDS011;12844;52.110;5.548;2023-11-21T05:57:32;3.22;;;2.45;;
24743;SDS011;12844;52.110;5.548;2023-11-21T05:59:59;3.72;;;2.50;;
24743;SDS011;12844;52.110;5.548;2023-11-21T06:02:24;3.70;;;2.70;;
24743;SDS011;12844;52.110;5.548;2023-11-21T06:04:50;3.10;;;2.80;;
24743;SDS011;12844;52.110;5.548;2023-11-21T06:07:16;3.20;;;2.67;;
24743;SDS011;12844;52.110;5.548;2023-11-21T06:09:42;3.35;;;2.63;;
24743;SDS011;12844;52.110;5.548;2023-11-21T06:12:09;4.80;;;2.67;;
24743;SDS011;12844;52.110;5.548;2023-11-21T06:14:35;3.10;;;2.70;;
24743;SDS011;12844;52.110;5.548;2023-11-21T06:17:01;2.75;;;2.25;;
24743;SDS011;12844;52.110;5.548;2023-11-21T06:19:27;3.15;;;2.50;;
24743;SDS011;12844;52.110;5.548;2023-11-21T06:21:52;2.95;;;2.60;;
24743;SDS011;12844;52.110;5.548;2023-11-21T06:24:18;3.80;;;2.83;;
24743;SDS011;12844;52.110;5.548;2023-11-21T06:26:46;3.80;;;2.70;;
24743;SDS011;12844;52.110;5.548;2023-11-21T06:29:13;3.35;;;2.42;;
24743;SDS011;12844;52.110;5.548;2023-11-21T06:31:39;2.70;;;2.35;;
24743;SDS011;12844;52.110;5.548;2023-11-21T06:34:06;2.85;;;2.40;;
24743;SDS011;12844;52.110;5.548;2023-11-21T06:36:31;3.40;;;2.70;;
24743;SDS011;12844;52.110;5.548;2023-11-21T06:38:57;3.65;;;2.85;;
24743;SDS011;12844;52.110;5.548;2023-11-21T06:41:22;3.33;;;2.60;;
24743;SDS011;12844;52.110;5.548;2023-11-21T06:43:48;3.40;;;2.60;;
24743;SDS011;12844;52.110;5.548;2023-11-21T06:46:14;3.25;;;2.50;;
24743;SDS011;12844;52.110;5.548;2023-11-21T06:48:41;3.00;;;2.65;;
24743;SDS011;12844;52.110;5.548;2023-11-21T06:51:07;2.60;;;2.22;;
24743;SDS011;12844;52.110;5.548;2023-11-21T06:53:33;3.10;;;2.50;;
24743;SDS011;12844;52.110;5.548;2023-11-21T06:55:59;3.53;;;2.00;;
24743;SDS011;12844;52.110;5.548;2023-11-21T06:58:24;3.33;;;2.38;;
24743;SDS011;12844;52.110;5.548;2023-11-21T07:00:50;2.65;;;2.38;;
24743;SDS011;12844;52.110;5.548;2023-11-21T07:03:17;2.92;;;2.50;;
24743;SDS011;12844;52.110;5.548;2023-11-21T07:05:44;3.50;;;2.55;;
24743;SDS011;12844;52.110;5.548;2023-11-21T07:08:10;3.20;;;2.63;;
24743;SDS011;12844;52.110;5.548;2023-11-21T07:10:35;3.67;;;2.42;;
24743;SDS011;12844;52.110;5.548;2023-11-21T07:13:02;2.88;;;2.33;;
24743;SDS011;12844;52.110;5.548;2023-11-21T07:15:27;3.40;;;2.72;;
24743;SDS011;12844;52.110;5.548;2023-11-21T07:17:53;3.10;;;2.40;;
24743;SDS011;12844;52.110;5.548;2023-11-21T07:20:19;3.75;;;2.42;;
24743;SDS011;12844;52.110;5.548;2023-11-21T07:22:45;3.25;;;2.40;;
24743;SDS011;12844;52.110;5.548;2023-11-21T07:25:10;3.50;;;2.58;;
24743;SDS011;12844;52.110;5.548;2023-11-21T07:27:36;3.35;;;2.40;;
24743;SDS011;12844;52.110;5.548;2023-11-21T07:30:02;2.83;;;2.40;;
24743;SDS011;12844;52.110;5.548;2023-11-21T07:32:30;3.13;;;2.30;;
24743;SDS011;12844;52.110;5.548;2023-11-21T07:34:56;3.25;;;2.47;;
24743;SDS011;12844;52.110;5.548;2023-11-21T07:37:23;3.28;;;2.60;;
24743;SDS011;12844;52.110;5.548;2023-11-21T07:39:48;3.20;;;2.30;;
24743;SDS011;12844;52.110;5.548;2023-11-21T07:42:14;3.03;;;2.15;;
24743;SDS011;12844;52.110;5.548;2023-11-21T07:44:40;3.15;;;2.45;;
24743;SDS011;12844;52.110;5.548;2023-11-21T07:47:06;2.40;;;2.03;;
24743;SDS011;12844;52.110;5.548;2023-11-21T07:49:31;4.22;;;2.78;;
24743;SDS011;12844;52.110;5.548;2023-11-21T07:51:57;2.88;;;2.15;;
24743;SDS011;12844;52.110;5.548;2023-11-21T07:54:22;3.80;;;2.80;;
24743;SDS011;12844;52.110;5.548;2023-11-21T07:56:48;3.28;;;2.33;;
24743;SDS011;12844;52.110;5.548;2023-11-21T07:59:13;3.38;;;2.40;;
24743;SDS011;12844;52.110;5.548;2023-11-21T08:01:39;3.67;;;2.65;;
24743;SDS011;12844;52.110;5.548;2023-11-21T08:04:05;3.30;;;2.20;;
24743;SDS011;12844;52.110;5.548;2023-11-21T08:06:31;2.75;;;2.10;;
24743;SDS011;12844;52.110;5.548;2023-11-21T08:08:58;3.65;;;2.42;;
24743;SDS011;12844;52.110;5.548;2023-11-21T08:11:24;4.30;;;1.98;;
24743;SDS011;12844;52.110;5.548;2023-11-21T08:13:51;4.93;;;2.03;;
24743;SDS011;12844;52.110;5.548;2023-11-21T08:16:16;3.33;;;1.80;;
24743;SDS011;12844;52.110;5.548;2023-11-21T08:18:42;2.38;;;1.90;;
24743;SDS011;12844;52.110;5.548;2023-11-21T08:21:08;3.22;;;1.90;;
24743;SDS011;12844;52.110;5.548;2023-11-21T08:23:33;2.70;;;1.80;;
24743;SDS011;12844;52.110;5.548;2023-11-21T08:25:59;2.65;;;1.80;;
24743;SDS011;12844;52.110;5.548;2023-11-21T08:28:27;2.92;;;1.90;;
24743;SDS011;12844;52.110;5.548;2023-11-21T08:30:52;2.60;;;1.52;;
24743;SDS011;12844;52.110;5.548;2023-11-21T08:33:19;3.15;;;1.80;;
24743;SDS011;12844;52.110;5.548;2023-11-21T08:35:44;2.33;;;1.80;;
24743;SDS011;12844;52.110;5.548;2023-11-21T08:38:11;4.18;;;1.90;;
24743;SDS011;12844;52.110;5.548;2023-11-21T08:40:37;3.00;;;1.80;;
24743;SDS011;12844;52.110;5.548;2023-11-21T08:43:03;3.58;;;2.05;;
24743;SDS011;12844;52.110;5.548;2023-11-21T08:45:29;3.25;;;1.90;;
24743;SDS011;12844;52.110;5.548;2023-11-21T08:47:56;3.85;;;2.05;;
24743;SDS011;12844;52.110;5.548;2023-11-21T08:50:21;4.72;;;1.90;;
24743;SDS011;12844;52.110;5.548;2023-11-21T08:52:47;3.75;;;1.98;;
24743;SDS011;12844;52.110;5.548;2023-11-21T08:55:13;4.22;;;1.70;;
24743;SDS011;12844;52.110;5.548;2023-11-21T08:57:39;3.13;;;1.50;;
24743;SDS011;12844;52.110;5.548;2023-11-21T09:00:09;4.35;;;1.70;;
24743;SDS011;12844;52.110;5.548;2023-11-21T09:02:42;1.90;;;1.55;;
24743;SDS011;12844;52.110;5.548;2023-11-21T09:05:11;2.38;;;1.58;;
24743;SDS011;12844;52.110;5.548;2023-11-21T09:07:40;3.38;;;1.83;;
24743;SDS011;12844;52.110;5.548;2023-11-21T09:10:06;3.20;;;1.60;;
24743;SDS011;12844;52.110;5.548;2023-11-21T09:12:33;4.85;;;1.70;;
24743;SDS011;12844;52.110;5.548;2023-11-21T09:15:04;2.72;;;1.58;;
24743;SDS011;12844;52.110;5.548;2023-11-21T09:17:31;2.75;;;1.80;;
24743;SDS011;12844;52.110;5.548;2023-11-21T09:19:57;2.20;;;1.67;;
24743;SDS011;12844;52.110;5.548;2023-11-21T09:22:22;3.20;;;1.60;;
24743;SDS011;12844;52.110;5.548;2023-11-21T09:24:50;2.33;;;1.80;;
24743;SDS011;12844;52.110;5.548;2023-11-21T09:27:16;8.05;;;1.65;;
24743;SDS011;12844;52.110;5.548;2023-11-21T09:29:42;3.60;;;1.40;;
24743;SDS011;12844;52.110;5.548;2023-11-21T09:32:08;1.70;;;1.60;;
24743;SDS011;12844;52.110;5.548;2023-11-21T09:34:37;3.28;;;1.77;;
24743;SDS011;12844;52.110;5.548;2023-11-21T09:37:06;5.32;;;2.05;;
24743;SDS011;12844;52.110;5.548;2023-11-21T09:39:33;3.65;;;2.00;;
24743;SDS011;12844;52.110;5.548;2023-11-21T09:42:19;3.65;;;1.90;;
24743;SDS011;12844;52.110;5.548;2023-11-21T09:44:58;3.35;;;1.60;;
24743;SDS011;12844;52.110;5.548;2023-11-21T09:47:30;3.47;;;1.77;;
24743;SDS011;12844;52.110;5.548;2023-11-21T09:50:01;3.10;;;1.70;;
24743;SDS011;12844;52.110;5.548;2023-11-21T09:52:27;3.63;;;1.88;;
24743;SDS011;12844;52.110;5.548;2023-11-21T09:54:54;4.20;;;1.88;;
24743;SDS011;12844;52.110;5.548;2023-11-21T09:57:23;3.03;;;1.88;;
24743;SDS011;12844;52.110;5.548;2023-11-21T09:59:54;2.70;;;1.70;;
24743;SDS011;12844;52.110;5.548;2023-11-21T10:02:24;2.28;;;1.77;;
24743;SDS011;12844;52.110;5.548;2023-11-21T10:04:53;2.75;;;1.80;;
24743;SDS011;12844;52.110;5.548;2023-11-21T10:07:20;2.97;;;2.00;;
24743;SDS011;12844;52.110;5.548;2023-11-21T10:09:46;3.72;;;1.80;;
24743;SDS011;12844;52.110;5.548;2023-11-21T10:12:15;4.20;;;1.80;;
24743;SDS011;12844;52.110;5.548;2023-11-21T10:14:41;3.17;;;1.70;;
24743;SDS011;12844;52.110;5.548;2023-11-21T10:17:10;3.30;;;1.90;;
24743;SDS011;12844;52.110;5.548;2023-11-21T10:19:37;3.08;;;1.70;;
24743;SDS011;12844;52.110;5.548;2023-11-21T10:22:04;4.10;;;2.03;;
24743;SDS011;12844;52.110;5.548;2023-11-21T10:24:32;5.88;;;2.60;;
24743;SDS011;12844;52.110;5.548;2023-11-21T10:26:58;3.08;;;2.30;;
24743;SDS011;12844;52.110;5.548;2023-11-21T10:29:28;3.38;;;1.80;;
24743;SDS011;12844;52.110;5.548;2023-11-21T10:31:55;2.42;;;1.83;;
24743;SDS011;12844;52.110;5.548;2023-11-21T10:34:23;2.83;;;1.75;;
24743;SDS011;12844;52.110;5.548;2023-11-21T10:36:49;2.53;;;2.17;;
24743;SDS011;12844;52.110;5.548;2023-11-21T10:39:18;3.08;;;1.90;;
24743;SDS011;12844;52.110;5.548;2023-11-21T10:41:49;2.95;;;1.90;;
24743;SDS011;12844;52.110;5.548;2023-11-21T10:44:15;2.65;;;1.90;;
24743;SDS011;12844;52.110;5.548;2023-11-21T10:46:52;2.90;;;2.10;;
24743;SDS011;12844;52.110;5.548;2023-11-21T10:49:22;3.13;;;1.70;;
24743;SDS011;12844;52.110;5.548;2023-11-21T10:51:50;3.53;;;2.13;;
24743;SDS011;12844;52.110;5.548;2023-11-21T10:54:21;3.25;;;1.90;;
24743;SDS011;12844;52.110;5.548;2023-11-21T10:56:49;3.80;;;2.05;;
24743;SDS011;12844;52.110;5.548;2023-11-21T10:59:16;5.75;;;2.05;;
24743;SDS011;12844;52.110;5.548;2023-11-21T11:01:42;5.53;;;2.38;;
24743;SDS011;12844;52.110;5.548;2023-11-21T11:04:10;4.93;;;2.65;;
24743;SDS011;12844;52.110;5.548;2023-11-21T11:06:44;4.97;;;2.15;;
24743;SDS011;12844;52.110;5.548;2023-11-21T11:09:16;4.38;;;2.20;;
24743;SDS011;12844;52.110;5.548;2023-11-21T11:11:42;3.85;;;2.47;;
24743;SDS011;12844;52.110;5.548;2023-11-21T11:14:12;4.65;;;2.63;;
24743;SDS011;12844;52.110;5.548;2023-11-21T11:16:39;4.50;;;2.08;;
24743;SDS011;12844;52.110;5.548;2023-11-21T11:19:11;3.72;;;2.05;;
24743;SDS011;12844;52.110;5.548;2023-11-21T11:24:39;4.82;;;2.60;;
24743;SDS011;12844;52.110;5.548;2023-11-21T11:32:47;4.70;;;2.58;;
24743;SDS011;12844;52.110;5.548;2023-11-21T11:35:24;6.20;;;2.85;;
24743;SDS011;12844;52.110;5.548;2023-11-21T11:37:57;4.18;;;2.38;;
24743;SDS011;12844;52.110;5.548;2023-11-21T11:40:25;5.47;;;2.75;;
24743;SDS011;12844;52.110;5.548;2023-11-21T11:43:05;6.00;;;3.33;;
24743;SDS011;12844;52.110;5.548;2023-11-21T11:45:32;4.82;;;2.60;;
24743;SDS011;12844;52.110;5.548;2023-11-21T11:48:00;6.07;;;2.78;;
24743;SDS011;12844;52.110;5.548;2023-11-21T11:50:27;4.80;;;2.50;;
24743;SDS011;12844;52.110;5.548;2023-11-21T11:52:53;6.47;;;2.70;;
24743;SDS011;12844;52.110;5.548;2023-11-21T11:55:20;4.75;;;2.53;;
24743;SDS011;12844;52.110;5.548;2023-11-21T11:57:56;6.85;;;3.28;;
24743;SDS011;12844;52.110;5.548;2023-11-21T12:02:55;5.68;;;2.92;;
24743;SDS011;12844;52.110;5.548;2023-11-21T12:05:26;5.70;;;2.92;;
24743;SDS011;12844;52.110;5.548;2023-11-21T12:08:02;5.57;;;2.78;;
24743;SDS011;12844;52.110;5.548;2023-11-21T12:10:29;6.25;;;2.80;;
24743;SDS011;12844;52.110;5.548;2023-11-21T12:12:56;5.72;;;2.92;;
24743;SDS011;12844;52.110;5.548;2023-11-21T12:15:23;7.78;;;3.67;;
24743;SDS011;12844;52.110;5.548;2023-11-21T12:17:49;5.38;;;2.83;;
24743;SDS011;12844;52.110;5.548;2023-11-21T12:20:15;5.60;;;2.85;;
24743;SDS011;12844;52.110;5.548;2023-11-21T12:22:51;7.07;;;3.40;;
24743;SDS011;12844;52.110;5.548;2023-11-21T12:25:18;5.70;;;3.28;;
24743;SDS011;12844;52.110;5.548;2023-11-21T12:27:48;6.22;;;3.30;;
24743;SDS011;12844;52.110;5.548;2023-11-21T12:30:15;6.45;;;3.13;;
24743;SDS011;12844;52.110;5.548;2023-11-21T12:32:44;7.57;;;3.03;;
24743;SDS011;12844;52.110;5.548;2023-11-21T12:35:12;8.88;;;3.17;;
24743;SDS011;12844;52.110;5.548;2023-11-21T12:37:39;7.43;;;3.17;;
24743;SDS011;12844;52.110;5.548;2023-11-21T12:40:06;9.90;;;3.28;;
24743;SDS011;12844;52.110;5.548;2023-11-21T12:42:43;6.30;;;3.40;;
24743;SDS011;12844;52.110;5.548;2023-11-21T12:45:41;7.18;;;3.25;;
24743;SDS011;12844;52.110;5.548;2023-11-21T16:37:39;4.30;;;2.80;;
24743;SDS011;12844;52.110;5.548;2023-11-21T16:40:05;8.88;;;3.70;;
24743;SDS011;12844;52.110;5.548;2023-11-21T16:42:33;5.65;;;3.50;;
24743;SDS011;12844;52.110;5.548;2023-11-21T16:44:59;6.13;;;3.55;;
24743;SDS011;12844;52.110;5.548;2023-11-21T16:47:25;4.82;;;3.50;;
24743;SDS011;12844;52.110;5.548;2023-11-21T17:56:34;3.72;;;2.70;;
24743;SDS011;12844;52.110;5.548;2023-11-21T18:22:12;5.45;;;2.95;;
24743;SDS011;12844;52.110;5.548;2023-11-21T18:24:38;3.67;;;2.80;;
24743;SDS011;12844;52.110;5.548;2023-11-21T18:27:04;5.00;;;2.72;;
24743;SDS011;12844;52.110;5.548;2023-11-21T18:29:30;3.40;;;2.70;;
24743;SDS011;12844;52.110;5.548;2023-11-21T18:31:56;3.90;;;2.80;;
24743;SDS011;12844;52.110;5.548;2023-11-21T18:34:22;4.53;;;2.90;;
24743;SDS011;12844;52.110;5.548;2023-11-21T18:36:49;5.03;;;2.72;;
24743;SDS011;12844;52.110;5.548;2023-11-21T18:39:15;3.63;;;2.95;;
24743;SDS011;12844;52.110;5.548;2023-11-21T18:41:42;5.00;;;2.95;;
24743;SDS011;12844;52.110;5.548;2023-11-21T18:44:08;5.35;;;2.65;;
24743;SDS011;12844;52.110;5.548;2023-11-21T18:46:38;4.57;;;2.55;;
24743;SDS011;12844;52.110;5.548;2023-11-21T18:49:05;6.00;;;2.58;;
24743;SDS011;12844;52.110;5.548;2023-11-21T18:51:31;3.35;;;2.60;;
24743;SDS011;12844;52.110;5.548;2023-11-21T18:53:58;4.78;;;2.80;;
24743;SDS011;12844;52.110;5.548;2023-11-21T18:56:24;3.40;;;2.72;;
24743;SDS011;12844;52.110;5.548;2023-11-21T18:58:51;4.07;;;2.90;;
24743;SDS011;12844;52.110;5.548;2023-11-21T19:01:24;3.88;;;2.53;;
24743;SDS011;12844;52.110;5.548;2023-11-21T19:03:54;5.30;;;3.08;;
24743;SDS011;12844;52.110;5.548;2023-11-21T19:06:20;4.57;;;3.17;;
24743;SDS011;12844;52.110;5.548;2023-11-21T19:08:47;5.32;;;2.95;;
24743;SDS011;12844;52.110;5.548;2023-11-21T19:11:13;6.00;;;3.15;;
24743;SDS011;12844;52.110;5.548;2023-11-21T19:13:38;9.32;;;3.45;;
24743;SDS011;12844;52.110;5.548;2023-11-21T19:16:04;4.10;;;3.05;;
24743;SDS011;12844;52.110;5.548;2023-11-21T19:18:30;6.00;;;3.13;;
24743;SDS011;12844;52.110;5.548;2023-11-21T19:20:56;5.75;;;2.95;;
24743;SDS011;12844;52.110;5.548;2023-11-21T19:23:29;5.60;;;3.33;;
24743;SDS011;12844;52.110;5.548;2023-11-21T19:25:54;4.03;;;3.20;;
24743;SDS011;12844;52.110;5.548;2023-11-21T19:28:20;5.10;;;3.33;;
24743;SDS011;12844;52.110;5.548;2023-11-21T19:30:45;6.43;;;4.53;;
24743;SDS011;12844;52.110;5.548;2023-11-21T19:33:11;8.68;;;3.65;;
24743;SDS011;12844;52.110;5.548;2023-11-21T19:35:37;5.78;;;3.95;;
24743;SDS011;12844;52.110;5.548;2023-11-21T19:38:04;4.88;;;3.63;;
24743;SDS011;12844;52.110;5.548;2023-11-21T19:40:30;6.25;;;4.28;;
24743;SDS011;12844;52.110;5.548;2023-11-21T19:42:58;6.15;;;4.22;;
24743;SDS011;12844;52.110;5.548;2023-11-21T19:45:25;5.60;;;4.15;;
24743;SDS011;12844;52.110;5.548;2023-11-21T19:47:53;4.78;;;4.20;;
24743;SDS011;12844;52.110;5.548;2023-11-21T19:50:19;5.07;;;4.57;;
24743;SDS011;12844;52.110;5.548;2023-11-21T19:52:44;5.35;;;4.40;;
24743;SDS011;12844;52.110;5.548;2023-11-21T19:55:10;5.95;;;3.88;;
24743;SDS011;12844;52.110;5.548;2023-11-21T19:57:37;4.97;;;4.13;;
24743;SDS011;12844;52.110;5.548;2023-11-21T20:00:06;4.32;;;3.90;;
24743;SDS011;12844;52.110;5.548;2023-11-21T20:02:36;6.00;;;3.85;;
24743;SDS011;12844;52.110;5.548;2023-11-21T20:05:02;4.25;;;3.85;;
24743;SDS011;12844;52.110;5.548;2023-11-21T20:07:28;4.93;;;3.78;;
24743;SDS011;12844;52.110;5.548;2023-11-21T20:09:57;4.13;;;3.13;;
24743;SDS011;12844;52.110;5.548;2023-11-21T20:12:23;4.15;;;3.05;;
24743;SDS011;12844;52.110;5.548;2023-11-21T20:14:48;4.43;;;3.03;;
24743;SDS011;12844;52.110;5.548;2023-11-21T20:17:14;5.50;;;3.45;;
24743;SDS011;12844;52.110;5.548;2023-11-21T20:19:43;4.00;;;3.38;;
24743;SDS011;12844;52.110;5.548;2023-11-21T20:22:09;6.13;;;3.40;;
24743;SDS011;12844;52.110;5.548;2023-11-21T20:24:35;4.13;;;3.30;;
24743;SDS011;12844;52.110;5.548;2023-11-21T20:27:04;5.40;;;3.50;;
24743;SDS011;12844;52.110;5.548;2023-11-21T20:29:30;4.65;;;3.00;;
24743;SDS011;12844;52.110;5.548;2023-11-21T20:31:57;6.32;;;3.33;;